Time;durP1;ratioP1;P1;durP2;ratioP2;P2;SDS_P1;SDS_P2;PMS_P1;PMS_P2;Temp;Humidity;BMP_temperature;BMP_pressure;BME280_temperature;BME280_humidity;BME280_pressure;Samples;Min_cycle;Max_cycle;Signal;HPM_P1;HPM_P2
2021/06/29 00:01:27;;;;;;;3.45;3.30;;;21.50;79.30;;;;;;5064791;28;20289;-73
2021/06/29 00:03:52;;;;;;;3.00;2.90;;;21.40;79.10;;;;;;5057824;28;20178;-72
2021/06/29 00:06:18;;;;;;;3.05;2.53;;;21.40;78.90;;;;;;5066419;28;20297;-73
2021/06/29 00:08:44;;;;;;;3.30;3.20;;;21.40;79.10;;;;;;5057373;28;20198;-73
2021/06/29 00:11:09;;;;;;;2.88;2.67;;;21.40;79.40;;;;;;5065599;28;20187;-73
2021/06/29 00:13:35;;;;;;;3.40;3.28;;;21.40;79.10;;;;;;5068425;28;20190;-73
2021/06/29 00:16:01;;;;;;;3.20;3.10;;;21.30;79.30;;;;;;5062982;28;20202;-73
2021/06/29 00:18:26;;;;;;;2.72;2.67;;;21.30;79.40;;;;;;5061978;28;20176;-72
2021/06/29 00:20:52;;;;;;;6.50;3.45;;;21.30;79.40;;;;;;5065713;28;20183;-73
2021/06/29 00:23:18;;;;;;;3.40;3.28;;;21.20;79.60;;;;;;5062154;28;20186;-74
2021/06/29 00:25:43;;;;;;;2.92;2.72;;;21.20;79.80;;;;;;5060068;28;20259;-72
2021/06/29 00:28:09;;;;;;;8.18;2.92;;;21.10;79.90;;;;;;5065610;28;20672;-72
2021/06/29 00:30:35;;;;;;;3.05;2.95;;;21.10;80.10;;;;;;5061211;28;20187;-72
2021/06/29 00:33:00;;;;;;;2.70;2.55;;;21.10;80.10;;;;;;5064470;28;20179;-72
2021/06/29 00:35:26;;;;;;;4.03;2.80;;;21.00;80.40;;;;;;5060083;28;20198;-72
2021/06/29 00:37:52;;;;;;;2.40;2.30;;;21.00;80.20;;;;;;5062851;28;20182;-72
2021/06/29 00:40:17;;;;;;;2.25;2.25;;;21.00;80.30;;;;;;5067566;28;20286;-72
2021/06/29 00:42:43;;;;;;;2.80;2.70;;;21.00;80.40;;;;;;5065308;28;20376;-72
2021/06/29 00:45:11;;;;;;;2.90;2.80;;;20.90;81.00;;;;;;5064391;28;20179;-72
2021/06/29 00:47:37;;;;;;;2.67;2.55;;;20.90;80.60;;;;;;5064376;28;20332;-72
2021/06/29 00:50:05;;;;;;;2.78;2.67;;;20.80;80.80;;;;;;5063954;28;20267;-72
2021/06/29 00:52:31;;;;;;;2.70;2.55;;;20.80;80.70;;;;;;5066688;28;20183;-72
2021/06/29 00:54:57;;;;;;;2.60;2.50;;;20.80;80.90;;;;;;5066514;28;20198;-72
2021/06/29 00:57:23;;;;;;;2.67;2.58;;;20.70;80.70;;;;;;5066772;28;20187;-72
2021/06/29 00:59:49;;;;;;;3.08;2.97;;;20.70;81.00;;;;;;5074624;28;20194;-72
2021/06/29 01:02:15;;;;;;;3.35;3.10;;;20.70;81.00;;;;;;5070764;28;20171;-72
2021/06/29 01:04:42;;;;;;;5.07;3.17;;;20.70;81.40;;;;;;5069392;28;20187;-72
2021/06/29 01:07:10;;;;;;;3.03;2.92;;;20.70;81.00;;;;;;5068468;28;20211;-72
2021/06/29 01:09:38;;;;;;;3.10;3.00;;;20.60;81.00;;;;;;5068860;28;20194;-72
2021/06/29 01:12:05;;;;;;;2.75;2.53;;;20.60;81.30;;;;;;5067856;28;20179;-72
2021/06/29 01:14:31;;;;;;;3.17;3.08;;;20.60;81.50;;;;;;5068308;28;20200;-72
2021/06/29 01:16:57;;;;;;;2.72;2.63;;;20.60;81.60;;;;;;5069829;28;20821;-72
2021/06/29 01:19:35;;;;;;;2.85;2.67;;;20.60;81.50;;;;;;5060812;28;20183;-73
2021/06/29 01:22:03;;;;;;;2.88;2.78;;;20.60;81.70;;;;;;5068688;28;20187;-72
2021/06/29 01:24:30;;;;;;;3.50;2.88;;;20.60;81.60;;;;;;5066785;28;21081;-72
2021/06/29 01:29:43;;;;;;;2.80;2.70;;;20.60;81.40;;;;;;5067640;28;20182;-73
2021/06/29 01:32:14;;;;;;;2.97;2.88;;;20.50;81.60;;;;;;5067921;28;20236;-72
2021/06/29 01:34:40;;;;;;;3.30;3.15;;;20.50;81.30;;;;;;5066751;28;20202;-72
2021/06/29 01:37:06;;;;;;;3.58;3.38;;;20.50;82.30;;;;;;5065057;28;20191;-72
2021/06/29 01:39:31;;;;;;;3.50;3.28;;;20.40;82.60;;;;;;5066027;28;20187;-72
2021/06/29 01:41:57;;;;;;;3.15;3.05;;;20.30;82.80;;;;;;5069059;28;20194;-72
2021/06/29 01:44:27;;;;;;;2.85;2.75;;;20.30;82.80;;;;;;5076735;28;20742;-71
2021/06/29 01:46:55;;;;;;;3.50;3.20;;;20.20;83.20;;;;;;5069204;28;20210;-71
2021/06/29 01:49:25;;;;;;;3.45;3.25;;;20.10;83.40;;;;;;5084224;28;20231;-72
2021/06/29 01:51:52;;;;;;;3.35;2.88;;;20.10;82.90;;;;;;5067748;28;20178;-72
2021/06/29 01:54:18;;;;;;;3.13;3.00;;;20.10;83.50;;;;;;5070072;28;20178;-72
2021/06/29 01:56:45;;;;;;;3.50;3.30;;;20.10;83.80;;;;;;5067279;28;20816;-72
2021/06/29 01:59:13;;;;;;;3.35;3.15;;;20.10;84.20;;;;;;5066581;28;20189;-72
2021/06/29 02:01:40;;;;;;;3.22;3.13;;;20.10;84.00;;;;;;5064874;28;20197;-72
2021/06/29 02:04:06;;;;;;;3.20;3.10;;;20.00;83.90;;;;;;5066961;28;20277;-72
2021/06/29 02:06:32;;;;;;;3.33;3.13;;;20.00;84.10;;;;;;5069175;28;20388;-72
2021/06/29 02:08:57;;;;;;;3.05;2.88;;;20.00;84.20;;;;;;5065788;28;20266;-72
2021/06/29 02:11:23;;;;;;;4.85;3.13;;;20.00;84.30;;;;;;5066357;28;20229;-72
2021/06/29 02:13:49;;;;;;;3.30;3.10;;;20.00;84.20;;;;;;5057635;28;20183;-72
2021/06/29 02:16:15;;;;;;;2.95;2.85;;;19.90;84.60;;;;;;5068289;28;20195;-72
2021/06/29 02:18:41;;;;;;;5.28;3.25;;;19.90;84.40;;;;;;5063157;28;20202;-72
2021/06/29 02:21:07;;;;;;;3.47;3.28;;;19.90;84.70;;;;;;5063815;28;20638;-72
2021/06/29 02:23:33;;;;;;;3.05;2.85;;;19.90;84.30;;;;;;5079702;28;20204;-72
2021/06/29 02:25:59;;;;;;;3.60;3.30;;;19.80;84.40;;;;;;5068262;28;20211;-73
2021/06/29 02:28:25;;;;;;;3.47;2.70;;;19.80;84.90;;;;;;5068125;28;20652;-72
2021/06/29 02:30:50;;;;;;;3.83;3.50;;;19.80;84.70;;;;;;5067033;28;20179;-72
2021/06/29 02:33:16;;;;;;;3.05;2.85;;;19.80;84.70;;;;;;5066702;28;20214;-72
2021/06/29 02:35:42;;;;;;;3.15;2.40;;;19.80;84.90;;;;;;5065108;28;20179;-72
2021/06/29 02:38:08;;;;;;;3.55;3.13;;;19.70;84.50;;;;;;5062036;28;20592;-72
2021/06/29 02:40:34;;;;;;;3.58;3.28;;;19.70;84.50;;;;;;5063223;28;20195;-72
2021/06/29 02:43:01;;;;;;;3.03;2.92;;;19.70;84.50;;;;;;5068218;28;20664;-72
2021/06/29 02:45:27;;;;;;;3.15;2.97;;;19.70;84.60;;;;;;5068841;28;20190;-72
2021/06/29 02:47:54;;;;;;;3.38;3.00;;;19.60;84.60;;;;;;5068289;28;20993;-72
2021/06/29 02:50:20;;;;;;;2.88;2.78;;;19.60;84.70;;;;;;5073598;28;20195;-72
2021/06/29 02:52:47;;;;;;;3.13;3.03;;;19.60;84.80;;;;;;5066889;28;20676;-73
2021/06/29 02:55:14;;;;;;;2.58;2.47;;;19.60;84.80;;;;;;5062595;28;20211;-73
2021/06/29 02:57:41;;;;;;;3.53;3.33;;;19.60;85.00;;;;;;5060681;28;20182;-73
2021/06/29 03:00:09;;;;;;;3.05;2.95;;;19.60;85.00;;;;;;5077777;28;20833;-73
2021/06/29 03:02:35;;;;;;;4.60;3.40;;;19.60;85.00;;;;;;5068364;28;20186;-72
2021/06/29 03:05:02;;;;;;;3.80;3.50;;;19.60;85.50;;;;;;5066334;28;20686;-73
2021/06/29 03:07:28;;;;;;;3.70;3.53;;;19.60;85.70;;;;;;5083484;28;20738;-72
2021/06/29 03:09:54;;;;;;;4.03;3.63;;;19.50;86.20;;;;;;5063484;28;20185;-72
2021/06/29 03:12:19;;;;;;;3.10;3.00;;;19.50;86.00;;;;;;5066179;28;20175;-72
2021/06/29 03:14:45;;;;;;;3.50;3.30;;;19.50;86.00;;;;;;5064619;28;20256;-72
2021/06/29 03:17:11;;;;;;;3.53;3.25;;;19.50;86.00;;;;;;5068229;28;21021;-72
2021/06/29 03:19:37;;;;;;;3.55;3.35;;;19.50;85.90;;;;;;5068723;28;20197;-73
2021/06/29 03:22:04;;;;;;;4.10;3.90;;;19.60;85.90;;;;;;5074177;28;20652;-72
2021/06/29 03:24:30;;;;;;;3.97;3.78;;;19.50;85.80;;;;;;5064814;28;20194;-72
2021/06/29 03:26:57;;;;;;;3.80;3.47;;;19.50;85.90;;;;;;5066874;28;20250;-73
2021/06/29 03:29:23;;;;;;;4.03;3.75;;;19.50;86.30;;;;;;5062844;28;20183;-73
2021/06/29 03:31:49;;;;;;;5.40;3.17;;;19.50;86.10;;;;;;5059544;28;20180;-72
2021/06/29 03:34:15;;;;;;;3.42;3.22;;;19.50;85.90;;;;;;5060077;28;20232;-73
2021/06/29 03:36:41;;;;;;;3.95;3.72;;;19.50;86.20;;;;;;5067090;28;20214;-72
2021/06/29 03:39:09;;;;;;;3.38;3.13;;;19.50;86.10;;;;;;5080059;28;20175;-72
2021/06/29 03:41:35;;;;;;;4.60;4.30;;;19.50;85.90;;;;;;5056523;28;20191;-72
2021/06/29 03:44:01;;;;;;;3.67;3.42;;;19.50;85.80;;;;;;5064805;28;20747;-72
2021/06/29 03:46:26;;;;;;;4.38;4.03;;;19.50;86.00;;;;;;5067221;28;20210;-73
2021/06/29 03:48:52;;;;;;;2.92;2.72;;;19.50;86.00;;;;;;5065856;28;20190;-73
2021/06/29 03:51:18;;;;;;;4.35;3.25;;;19.60;86.00;;;;;;5070363;28;20175;-72
2021/06/29 03:53:43;;;;;;;5.50;3.58;;;19.60;85.90;;;;;;5066914;28;20176;-73
2021/06/29 03:56:23;;;;;;;3.65;3.45;;;19.60;86.10;;;;;;5065055;28;20187;-73
2021/06/29 03:58:51;;;;;;;2.95;2.80;;;19.70;86.00;;;;;;5066008;28;20185;-72
2021/06/29 04:01:17;;;;;;;3.05;2.95;;;19.70;85.70;;;;;;5059884;28;20190;-73
2021/06/29 04:03:43;;;;;;;2.92;2.83;;;19.70;85.80;;;;;;5062756;28;20205;-73
2021/06/29 04:06:09;;;;;;;3.42;3.13;;;19.80;86.30;;;;;;5062187;28;20222;-73
2021/06/29 04:08:34;;;;;;;4.00;3.80;;;19.80;85.90;;;;;;5061701;28;20180;-73
2021/06/29 04:11:00;;;;;;;4.20;3.95;;;19.90;85.90;;;;;;5061411;28;20217;-73
2021/06/29 04:13:26;;;;;;;4.05;3.63;;;19.90;85.90;;;;;;5062976;28;20210;-73
2021/06/29 04:15:51;;;;;;;3.20;3.00;;;19.90;85.90;;;;;;5061944;28;20202;-73
2021/06/29 04:18:17;;;;;;;3.05;2.92;;;20.00;85.80;;;;;;5063098;28;20194;-73
2021/06/29 04:20:43;;;;;;;4.10;3.50;;;20.00;85.60;;;;;;5058392;28;20187;-72
2021/06/29 04:23:09;;;;;;;3.97;3.00;;;20.00;85.70;;;;;;5062386;28;20984;-73
2021/06/29 04:25:35;;;;;;;4.68;3.97;;;20.00;85.40;;;;;;5062042;28;20675;-73
2021/06/29 04:28:00;;;;;;;4.63;4.32;;;20.10;85.70;;;;;;5065285;28;20191;-73
2021/06/29 04:30:26;;;;;;;3.60;3.30;;;20.10;85.80;;;;;;5065881;28;20179;-73
2021/06/29 04:32:52;;;;;;;3.92;3.55;;;20.20;86.50;;;;;;5065389;28;20186;-73
2021/06/29 04:35:19;;;;;;;3.90;3.60;;;20.20;85.60;;;;;;5069187;28;20182;-73
2021/06/29 04:37:45;;;;;;;3.60;3.35;;;20.20;85.40;;;;;;5070841;28;20668;-73
2021/06/29 04:40:12;;;;;;;4.90;4.22;;;20.30;85.40;;;;;;5061585;28;20183;-73
2021/06/29 04:42:37;;;;;;;7.47;4.85;;;20.30;85.30;;;;;;5066487;28;20675;-72
2021/06/29 04:45:04;;;;;;;3.92;3.63;;;20.40;85.80;;;;;;5069357;28;20190;-72
2021/06/29 04:47:36;;;;;;;3.97;3.80;;;20.40;85.20;;;;;;5067939;28;20214;-72
2021/06/29 04:50:05;;;;;;;5.20;4.05;;;20.40;85.00;;;;;;5067114;28;20198;-72
2021/06/29 04:52:30;;;;;;;4.10;3.80;;;20.50;84.90;;;;;;5070504;28;20202;-72
2021/06/29 04:54:56;;;;;;;6.75;4.70;;;20.60;85.00;;;;;;5067229;28;20649;-72
2021/06/29 04:57:21;;;;;;;7.55;4.15;;;20.60;85.30;;;;;;5069965;28;20649;-74
2021/06/29 04:59:47;;;;;;;6.28;4.28;;;20.60;86.50;;;;;;5068256;28;20722;-72
2021/06/29 05:02:13;;;;;;;3.95;3.75;;;20.60;85.10;;;;;;5069650;28;20183;-72
2021/06/29 05:04:38;;;;;;;4.50;4.10;;;20.70;84.90;;;;;;5069433;28;20660;-72
2021/06/29 05:07:04;;;;;;;5.05;4.63;;;20.80;85.00;;;;;;5068896;28;20229;-72
2021/06/29 05:09:30;;;;;;;4.20;3.90;;;20.80;85.00;;;;;;5067355;28;20267;-72
2021/06/29 05:11:55;;;;;;;4.50;4.22;;;20.80;85.80;;;;;;5063583;28;20190;-72
2021/06/29 05:14:21;;;;;;;4.32;4.07;;;20.90;84.90;;;;;;5068018;28;20195;-73
2021/06/29 05:16:47;;;;;;;4.43;4.00;;;21.00;84.50;;;;;;5065439;28;20187;-71
2021/06/29 05:19:12;;;;;;;5.13;4.53;;;21.00;84.20;;;;;;5069436;28;20244;-72
2021/06/29 05:21:38;;;;;;;6.85;4.43;;;21.10;83.60;;;;;;5067799;28;20631;-72
2021/06/29 05:24:04;;;;;;;6.10;4.68;;;21.10;83.40;;;;;;5059841;28;20171;-72
2021/06/29 05:26:30;;;;;;;5.40;5.00;;;21.20;83.40;;;;;;5060004;28;20297;-72
2021/06/29 05:28:55;;;;;;;4.75;4.28;;;21.20;83.60;;;;;;5064998;28;20664;-73
2021/06/29 05:31:21;;;;;;;5.25;4.90;;;21.30;83.50;;;;;;5068887;28;20741;-72
2021/06/29 05:33:47;;;;;;;6.38;4.70;;;21.30;83.40;;;;;;5068781;28;20210;-72
2021/06/29 05:36:12;;;;;;;4.75;4.38;;;21.30;83.50;;;;;;5068143;28;20187;-72
2021/06/29 05:38:38;;;;;;;7.25;4.70;;;21.40;83.40;;;;;;5068038;28;20183;-74
2021/06/29 05:41:04;;;;;;;4.88;4.50;;;21.50;83.00;;;;;;5067288;28;20182;-73
2021/06/29 05:43:29;;;;;;;5.55;4.78;;;21.50;82.80;;;;;;5068465;28;20179;-74
2021/06/29 05:45:55;;;;;;;5.60;5.10;;;21.60;82.70;;;;;;5065721;28;20214;-74
2021/06/29 05:48:21;;;;;;;4.85;4.55;;;21.60;82.60;;;;;;5068709;28;20179;-73
2021/06/29 05:50:47;;;;;;;4.70;4.30;;;21.70;82.40;;;;;;5070006;28;20175;-73
2021/06/29 05:53:14;;;;;;;5.43;5.00;;;21.70;82.50;;;;;;5068596;28;20183;-73
2021/06/29 05:55:40;;;;;;;5.38;4.88;;;21.80;82.20;;;;;;5069907;28;20232;-73
2021/06/29 05:58:06;;;;;;;5.47;5.13;;;21.90;82.60;;;;;;5069021;28;20601;-73
2021/06/29 06:00:31;;;;;;;7.28;5.63;;;21.90;82.20;;;;;;5068810;28;20270;-73
2021/06/29 06:02:57;;;;;;;5.55;4.85;;;22.00;82.10;;;;;;5072938;28;20667;-73
2021/06/29 06:05:23;;;;;;;6.88;5.13;;;22.10;82.10;;;;;;5074756;28;20186;-73
2021/06/29 06:07:52;;;;;;;7.15;5.50;;;22.10;82.10;;;;;;5067907;28;20231;-72
2021/06/29 06:10:18;;;;;;;6.85;5.53;;;22.20;82.10;;;;;;5066488;28;20191;-73
2021/06/29 06:12:44;;;;;;;5.80;5.28;;;22.20;81.90;;;;;;5067386;28;20179;-73
2021/06/29 06:15:09;;;;;;;6.78;6.10;;;22.30;82.60;;;;;;5067776;28;20195;-73
2021/06/29 06:17:37;;;;;;;7.00;5.05;;;22.40;81.90;;;;;;5067911;28;20195;-73
2021/06/29 06:20:05;;;;;;;7.00;5.80;;;22.50;82.00;;;;;;5074598;28;20187;-73
2021/06/29 06:22:31;;;;;;;9.43;5.20;;;22.50;82.10;;;;;;5067639;28;20175;-73
2021/06/29 06:24:58;;;;;;;9.30;6.78;;;22.60;82.40;;;;;;5068203;28;20258;-73
2021/06/29 06:27:24;;;;;;;6.38;5.70;;;22.70;82.20;;;;;;5067557;28;20962;-73
2021/06/29 06:29:50;;;;;;;7.60;6.80;;;22.70;82.00;;;;;;5068027;28;20206;-73
2021/06/29 06:32:15;;;;;;;6.30;5.70;;;22.80;82.10;;;;;;5067396;28;20211;-73
2021/06/29 06:34:41;;;;;;;7.32;6.53;;;22.90;82.40;;;;;;5066221;28;20239;-73
2021/06/29 06:37:07;;;;;;;6.80;5.88;;;23.00;81.90;;;;;;5067338;28;20179;-73
2021/06/29 06:39:33;;;;;;;6.75;6.15;;;23.00;81.70;;;;;;5067460;28;20209;-73
2021/06/29 06:41:58;;;;;;;6.20;5.63;;;23.10;81.60;;;;;;5064652;28;20175;-74
2021/06/29 06:44:24;;;;;;;14.43;6.72;;;23.20;81.60;;;;;;5067314;28;20178;-73
2021/06/29 06:46:50;;;;;;;7.53;6.88;;;23.20;81.20;;;;;;5067336;28;20245;-73
2021/06/29 06:49:16;;;;;;;8.48;7.28;;;23.30;80.70;;;;;;5067083;28;20187;-74
2021/06/29 06:51:42;;;;;;;9.57;6.93;;;23.40;80.70;;;;;;5067134;28;20635;-74
2021/06/29 06:54:08;;;;;;;7.00;6.13;;;23.40;80.80;;;;;;5067133;28;20178;-74
2021/06/29 06:56:34;;;;;;;8.05;6.68;;;23.50;80.90;;;;;;5060301;28;20785;-74
2021/06/29 06:58:59;;;;;;;12.93;6.97;;;23.50;80.90;;;;;;5066025;28;20194;-74
2021/06/29 07:01:25;;;;;;;7.20;6.50;;;23.60;80.80;;;;;;5063729;28;20190;-74
2021/06/29 07:03:51;;;;;;;6.80;6.20;;;23.70;80.70;;;;;;5079237;28;20619;-74
2021/06/29 07:06:16;;;;;;;7.57;6.82;;;23.80;80.70;;;;;;5068853;28;20215;-74
2021/06/29 07:08:43;;;;;;;9.75;7.45;;;23.80;80.40;;;;;;5075733;28;20632;-74
2021/06/29 07:11:09;;;;;;;8.18;6.82;;;23.90;80.30;;;;;;5066809;28;20675;-73
2021/06/29 07:13:35;;;;;;;9.82;7.40;;;24.00;80.30;;;;;;5067003;28;20228;-74
2021/06/29 07:16:02;;;;;;;7.88;7.13;;;24.00;79.60;;;;;;5066853;28;20252;-74
2021/06/29 07:18:27;;;;;;;13.93;7.50;;;24.10;79.90;;;;;;5066796;28;20236;-74
2021/06/29 07:20:53;;;;;;;9.98;6.55;;;24.10;80.30;;;;;;5067687;28;20182;-73
2021/06/29 07:23:19;;;;;;;8.02;7.10;;;24.20;79.80;;;;;;5067739;28;20175;-73
2021/06/29 07:25:46;;;;;;;11.88;6.95;;;24.30;79.40;;;;;;5067696;28;20253;-73
2021/06/29 07:28:12;;;;;;;12.98;7.03;;;24.40;79.20;;;;;;5071663;28;20190;-73
2021/06/29 07:30:38;;;;;;;9.82;7.20;;;24.40;79.30;;;;;;5066593;28;20183;-72
2021/06/29 07:33:05;;;;;;;7.65;6.90;;;24.50;78.80;;;;;;5078153;28;20193;-73
2021/06/29 07:35:31;;;;;;;7.53;6.65;;;24.60;78.40;;;;;;5069469;28;20171;-73
2021/06/29 07:37:59;;;;;;;6.95;6.35;;;24.60;78.30;;;;;;5078632;28;20182;-72
2021/06/29 07:40:25;;;;;;;16.40;7.18;;;24.70;78.20;;;;;;5069791;28;20192;-73
2021/06/29 07:42:51;;;;;;;8.77;7.10;;;24.80;78.80;;;;;;5066952;28;20249;-73
2021/06/29 07:45:17;;;;;;;7.13;6.53;;;24.80;78.30;;;;;;5066360;28;20262;-71
2021/06/29 07:47:44;;;;;;;8.80;7.47;;;24.90;78.20;;;;;;5066258;28;20214;-71
2021/06/29 07:50:11;;;;;;;10.13;7.03;;;25.00;77.80;;;;;;5065915;28;20191;-71
2021/06/29 07:52:37;;;;;;;9.63;6.93;;;25.00;77.70;;;;;;5066285;28;20266;-72
2021/06/29 07:55:04;;;;;;;8.25;7.07;;;25.10;77.40;;;;;;5065941;28;20193;-72
2021/06/29 07:57:30;;;;;;;10.02;7.38;;;25.20;76.90;;;;;;5059114;28;20201;-71
2021/06/29 07:59:56;;;;;;;8.23;6.80;;;25.20;76.70;;;;;;5065993;28;20621;-71
2021/06/29 08:02:21;;;;;;;7.63;6.93;;;25.20;76.60;;;;;;5069720;28;20174;-73
2021/06/29 08:04:48;;;;;;;7.80;6.80;;;25.30;76.60;;;;;;5072175;28;20663;-72
2021/06/29 08:07:14;;;;;;;10.63;6.93;;;25.40;76.70;;;;;;5066044;28;20214;-72
2021/06/29 08:09:40;;;;;;;8.98;6.50;;;25.40;77.20;;;;;;5065453;28;20644;-72
2021/06/29 08:12:08;;;;;;;8.13;6.88;;;25.50;77.50;;;;;;5080888;28;20187;-72
2021/06/29 08:14:35;;;;;;;8.15;7.28;;;25.60;77.30;;;;;;5065751;28;20745;-72
2021/06/29 08:17:02;;;;;;;9.68;7.57;;;25.70;77.40;;;;;;5066055;28;20682;-72
2021/06/29 08:19:28;;;;;;;9.45;7.68;;;25.80;77.20;;;;;;5057587;28;20206;-72
2021/06/29 08:21:54;;;;;;;9.40;6.85;;;25.90;77.10;;;;;;5065708;28;20175;-72
2021/06/29 08:24:20;;;;;;;7.00;6.43;;;26.00;77.10;;;;;;5065313;28;20240;-72
2021/06/29 08:26:45;;;;;;;8.48;6.65;;;26.10;76.40;;;;;;5065918;28;20246;-72
2021/06/29 08:29:12;;;;;;;8.30;6.30;;;26.10;76.20;;;;;;5065574;28;20542;-72
2021/06/29 08:31:38;;;;;;;8.10;7.15;;;26.20;74.70;;;;;;5065623;28;20220;-72
2021/06/29 08:34:05;;;;;;;6.78;6.18;;;26.20;75.00;;;;;;5065554;28;20692;-72
2021/06/29 08:36:31;;;;;;;7.30;6.15;;;26.30;74.80;;;;;;5067073;28;20205;-72
2021/06/29 08:38:58;;;;;;;7.82;7.00;;;26.40;74.90;;;;;;5065603;28;20672;-72
2021/06/29 08:41:23;;;;;;;8.00;7.40;;;26.50;74.60;;;;;;5066931;28;20185;-72
2021/06/29 08:43:51;;;;;;;12.63;8.73;;;26.50;74.10;;;;;;5067482;28;20179;-72
2021/06/29 08:46:17;;;;;;;7.97;7.28;;;26.60;74.30;;;;;;5079045;28;20266;-72
2021/06/29 08:48:43;;;;;;;9.13;6.68;;;26.70;74.60;;;;;;5073955;28;20175;-72
2021/06/29 08:51:09;;;;;;;9.38;6.95;;;26.80;73.70;;;;;;5066392;28;20236;-73
2021/06/29 08:53:36;;;;;;;8.10;7.22;;;26.80;72.20;;;;;;5064756;28;20429;-73
2021/06/29 08:56:03;;;;;;;6.88;6.28;;;26.90;73.30;;;;;;5066323;28;20218;-73
2021/06/29 08:58:33;;;;;;;6.18;5.68;;;26.90;72.70;;;;;;5066035;28;20194;-73
2021/06/29 09:01:00;;;;;;;7.10;6.43;;;27.00;70.50;;;;;;5081256;28;20213;-74
2021/06/29 09:03:27;;;;;;;7.50;6.90;;;27.10;71.40;;;;;;5060739;28;20629;-73
2021/06/29 09:05:54;;;;;;;7.95;6.38;;;27.20;72.10;;;;;;5077393;28;20652;-73
2021/06/29 09:08:22;;;;;;;6.97;6.47;;;27.30;72.50;;;;;;5066547;28;20665;-73
2021/06/29 09:11:08;;;;;;;10.38;6.78;;;27.30;72.70;;;;;;5074099;28;20188;-73
2021/06/29 09:13:34;;;;;;;6.97;6.30;;;27.50;73.30;;;;;;5079535;28;20214;-73
2021/06/29 09:15:59;;;;;;;9.18;7.15;;;27.60;72.50;;;;;;5070269;28;20294;-73
2021/06/29 09:18:28;;;;;;;6.57;6.03;;;27.70;71.40;;;;;;5071801;28;20327;-73
2021/06/29 09:21:24;;;;;;;9.57;7.05;;;27.80;72.40;;;;;;5066321;28;20191;-73
2021/06/29 09:23:51;;;;;;;10.43;7.28;;;28.00;71.30;;;;;;5053186;28;20277;-73
2021/06/29 09:26:20;;;;;;;8.65;7.28;;;28.10;71.70;;;;;;5053610;28;20756;-73
2021/06/29 09:28:52;;;;;;;11.07;7.07;;;28.20;71.70;;;;;;5052678;28;20577;-74
2021/06/29 09:31:20;;;;;;;7.47;6.70;;;28.30;71.70;;;;;;5053660;28;20707;-73
2021/06/29 09:33:53;;;;;;;7.95;7.15;;;28.50;70.70;;;;;;5050768;28;20558;-73
2021/06/29 09:36:26;;;;;;;12.57;8.00;;;28.50;69.80;;;;;;5038634;28;20878;-73
2021/06/29 09:38:54;;;;;;;7.72;7.13;;;28.60;69.40;;;;;;5046832;28;20877;-73
2021/06/29 09:41:25;;;;;;;7.28;6.45;;;28.70;69.60;;;;;;5047005;28;20188;-73
2021/06/29 09:44:19;;;;;;;7.10;6.55;;;28.80;70.10;;;;;;5041635;28;20300;-73
2021/06/29 09:46:45;;;;;;;8.30;7.18;;;28.90;70.50;;;;;;5044486;28;20229;-73
2021/06/29 09:49:16;;;;;;;8.98;7.90;;;29.10;70.80;;;;;;5024887;28;20192;-73
2021/06/29 09:51:44;;;;;;;8.55;7.78;;;29.30;70.30;;;;;;5043414;28;20180;-73
2021/06/29 09:54:11;;;;;;;9.05;8.32;;;29.40;70.50;;;;;;5043589;28;20681;-73
2021/06/29 09:56:43;;;;;;;11.68;8.57;;;29.60;70.00;;;;;;5036597;28;20207;-73
2021/06/29 09:59:22;;;;;;;8.95;8.15;;;29.70;69.40;;;;;;5032641;28;20796;-74
2021/06/29 10:01:49;;;;;;;9.20;8.18;;;29.90;69.80;;;;;;5062228;28;20179;-73
2021/06/29 10:04:15;;;;;;;10.38;9.30;;;30.00;69.50;;;;;;5070447;28;20273;-73
2021/06/29 10:06:46;;;;;;;11.70;8.68;;;30.10;67.30;;;;;;5072409;28;20206;-73
2021/06/29 10:09:16;;;;;;;8.73;7.90;;;30.10;67.20;;;;;;5071388;28;20179;-73
2021/06/29 10:11:53;;;;;;;11.60;8.30;;;30.20;67.30;;;;;;5068724;28;20209;-73
2021/06/29 10:14:21;;;;;;;10.13;8.23;;;30.30;68.00;;;;;;5084285;28;20285;-73
2021/06/29 10:16:52;;;;;;;12.90;9.90;;;30.50;68.00;;;;;;5067823;28;20183;-73
2021/06/29 10:21:54;;;;;;;12.38;9.23;;;30.90;67.40;;;;;;5071992;28;20187;-73
2021/06/29 10:24:24;;;;;;;11.23;9.30;;;31.10;66.80;;;;;;5074049;28;20206;-73
2021/06/29 10:26:52;;;;;;;11.32;9.10;;;31.20;66.20;;;;;;5075474;28;20214;-73
2021/06/29 10:29:21;;;;;;;10.85;9.65;;;31.40;66.40;;;;;;5074899;28;20887;-73
2021/06/29 10:31:52;;;;;;;10.07;9.07;;;31.70;65.40;;;;;;5091239;28;20200;-73
2021/06/29 10:34:18;;;;;;;14.60;10.20;;;32.10;64.30;;;;;;5072632;28;20227;-73
2021/06/29 10:36:48;;;;;;;12.32;9.38;;;32.40;65.20;;;;;;5075904;28;20193;-73
2021/06/29 10:39:20;;;;;;;13.70;9.73;;;32.70;64.50;;;;;;5073995;28;20179;-73
2021/06/29 10:42:01;;;;;;;10.68;8.80;;;33.10;65.10;;;;;;5075402;28;20186;-73
2021/06/29 10:44:28;;;;;;;11.32;9.05;;;33.60;64.10;;;;;;5072828;28;20247;-73
2021/06/29 10:46:55;;;;;;;23.85;9.00;;;34.00;62.60;;;;;;5073126;28;20214;-72
2021/06/29 10:49:34;;;;;;;10.00;9.18;;;34.60;62.50;;;;;;5086016;28;20283;-72
2021/06/29 10:52:22;;;;;;;9.38;8.52;;;35.10;61.10;;;;;;5075206;28;20186;-72
2021/06/29 10:54:50;;;;;;;9.63;8.75;;;35.80;61.20;;;;;;5072064;28;20223;-73
2021/06/29 10:57:18;;;;;;;10.52;9.52;;;36.20;59.30;;;;;;5075215;28;20191;-73
2021/06/29 10:59:55;;;;;;;9.70;8.77;;;36.60;59.10;;;;;;5069875;28;20186;-73
2021/06/29 11:02:30;;;;;;;11.73;9.57;;;37.10;58.00;;;;;;5078092;28;20189;-73
2021/06/29 11:04:59;;;;;;;11.88;9.13;;;37.60;57.50;;;;;;5071669;28;20201;-73
2021/06/29 11:07:30;;;;;;;10.63;9.40;;;38.10;57.50;;;;;;5072357;28;20217;-72
2021/06/29 11:10:02;;;;;;;9.73;8.90;;;38.50;54.70;;;;;;5072978;28;20186;-72
2021/06/29 11:12:30;;;;;;;9.38;8.73;;;38.90;54.60;;;;;;5067951;28;20715;-73
2021/06/29 11:14:58;;;;;;;9.05;8.30;;;39.20;55.20;;;;;;5070939;28;20202;-73
2021/06/29 11:17:47;;;;;;;8.82;8.05;;;39.70;53.70;;;;;;5071010;28;20190;-73
2021/06/29 11:20:15;;;;;;;8.30;7.72;;;40.30;51.80;;;;;;5071317;28;20567;-73
2021/06/29 11:22:53;;;;;;;9.98;8.57;;;40.70;52.30;;;;;;5070990;28;20627;-73
2021/06/29 11:25:39;;;;;;;8.75;8.05;;;41.20;51.10;;;;;;5070471;28;20181;-73
2021/06/29 11:28:13;;;;;;;8.45;7.85;;;41.50;50.40;;;;;;5073963;28;20225;-73
2021/06/29 11:30:52;;;;;;;7.90;7.30;;;41.60;53.10;;;;;;5069555;28;20182;-73
2021/06/29 11:33:43;;;;;;;8.30;7.68;;;42.00;50.40;;;;;;5073599;28;20193;-73
2021/06/29 11:36:23;;;;;;;8.63;7.75;;;42.00;49.40;;;;;;5069447;28;20186;-73
2021/06/29 11:38:50;;;;;;;8.93;8.25;;;42.10;49.40;;;;;;5068401;28;20220;-74
2021/06/29 11:41:25;;;;;;;8.18;7.53;;;42.20;49.40;;;;;;5073991;28;20213;-73
2021/06/29 11:43:57;;;;;;;7.82;7.40;;;42.50;49.80;;;;;;5074468;28;20189;-73
2021/06/29 11:46:55;;;;;;;8.38;7.78;;;42.60;50.20;;;;;;5074219;28;20220;-74
2021/06/29 11:49:36;;;;;;;8.35;7.68;;;42.50;47.70;;;;;;5089507;28;20654;-73
2021/06/29 11:52:17;;;;;;;7.93;7.53;;;42.30;48.20;;;;;;5072726;28;20190;-74
2021/06/29 11:54:55;;;;;;;8.32;6.82;;;42.10;50.00;;;;;;5074631;28;20565;-74
2021/06/29 11:57:41;;;;;;;8.68;7.97;;;41.90;47.40;;;;;;5075384;28;20269;-73
2021/06/29 12:00:07;;;;;;;7.45;6.90;;;42.00;46.80;;;;;;5088047;28;20185;-73
2021/06/29 12:02:34;;;;;;;7.55;6.95;;;42.20;49.30;;;;;;5073771;28;20659;-74
2021/06/29 12:05:01;;;;;;;7.78;7.28;;;42.40;48.20;;;;;;5073228;28;20190;-74
2021/06/29 12:07:35;;;;;;;9.48;8.68;;;42.70;49.30;;;;;;5072725;28;20218;-74
2021/06/29 12:10:31;;;;;;;8.57;7.88;;;43.10;49.80;;;;;;5060928;28;20197;-74
2021/06/29 12:13:11;;;;;;;8.77;7.97;;;43.30;48.30;;;;;;5082032;28;20297;-74
2021/06/29 12:15:44;;;;;;;9.02;8.18;;;43.30;48.90;;;;;;5078315;28;20235;-73
2021/06/29 12:18:36;;;;;;;9.25;8.38;;;43.30;48.70;;;;;;5060815;28;20186;-73
2021/06/29 12:21:06;;;;;;;15.00;8.38;;;43.40;49.00;;;;;;5079529;28;20193;-73
2021/06/29 12:23:34;;;;;;;9.40;7.75;;;43.60;47.40;;;;;;5073401;28;20177;-73
2021/06/29 12:26:02;;;;;;;9.75;8.52;;;43.90;48.90;;;;;;5071481;28;20179;-73
2021/06/29 12:28:37;;;;;;;8.18;7.75;;;44.10;49.10;;;;;;5078933;28;20315;-73
2021/06/29 12:31:07;;;;;;;8.75;8.05;;;43.90;49.00;;;;;;5061789;28;20276;-73
2021/06/29 12:33:36;;;;;;;8.52;7.72;;;43.90;47.70;;;;;;5065785;28;20178;-73
2021/06/29 12:36:14;;;;;;;8.60;8.10;;;43.20;48.50;;;;;;5065543;28;20656;-73
2021/06/29 12:38:50;;;;;;;8.65;7.90;;;42.40;49.00;;;;;;5065632;28;20671;-74
2021/06/29 12:41:21;;;;;;;8.43;7.68;;;42.00;50.00;;;;;;5061374;28;20213;-73
2021/06/29 12:43:53;;;;;;;8.43;7.93;;;41.70;48.40;;;;;;5064179;28;20182;-74
2021/06/29 12:46:24;;;;;;;8.98;7.88;;;41.30;50.20;;;;;;5065633;28;20293;-74
2021/06/29 12:48:56;;;;;;;8.80;8.10;;;41.00;51.00;;;;;;5065688;28;20222;-74
2021/06/29 12:51:23;;;;;;;8.30;7.88;;;41.20;50.30;;;;;;5065870;28;20240;-74
2021/06/29 12:53:58;;;;;;;9.38;8.38;;;41.80;48.90;;;;;;5077434;28;20190;-73
2021/06/29 12:56:39;;;;;;;8.07;7.43;;;42.00;48.90;;;;;;5072270;28;20193;-73